Jp Tsubaki — JD2817 — position and weather

sailwx.info

Track history (hours):
 
Tides and Currents Weather Stations Pressure Air Temp Water Temp Dewpoint Dewpoint Depression Visibility Wind Speed Wind Dir Waves Ship Positions

Jp Tsubaki

Last reported at 2014-Aug-30 21:32 UTC. Time now 2014-Aug-30 22:34 UTC.
Position N 35°24' E 139°39'.

Length 115 m; draft 4.4 m.

Type: Cargo ship. MMSI: 431000734.

Date/timePositionNaut miles runAvg speedWind from/ knotsBaromVisibWave heightAir tempDewpointWater temp
2014-Aug-30 21:32N 35°24' E 139°39'0 0.0
2014-Aug-30 20:32N 35°24' E 139°39'0 0.0
2014-Aug-30 19:32N 35°24' E 139°39'0 0.0
2014-Aug-30 18:32N 35°24' E 139°39'0 0.0
2014-Aug-30 17:32N 35°24' E 139°39'0 0.0
2014-Aug-30 16:32N 35°24' E 139°39'0 0.0
2014-Aug-30 15:32N 35°24' E 139°39'0 0.0
2014-Aug-30 14:34N 35°24' E 139°39'7 7.1
2014-Aug-30 13:34N 35°26' E 139°47'4 3.6
2014-Aug-30 12:34N 35°29' E 139°50'7 6.7
2014-Aug-30 11:33N 35°27' E 139°58'0 0.1
2014-Aug-30 10:33N 35°27' E 139°58'0 0.0
2014-Aug-30 09:28N 35°27' E 139°58'0 0.0
2014-Aug-30 08:28N 35°27' E 139°58'0 0.0
2014-Aug-30 07:31N 35°27' E 139°58'0 0.0
2014-Aug-30 06:31N 35°27' E 139°58'1 1.3
2014-Aug-30 05:34N 35°29' E 139°58'1010.2
2014-Aug-30 04:34N 35°25' E 139°46'6 5.8
2014-Aug-30 03:32N 35°24' E 139°39'0 0.0
2014-Aug-30 02:32N 35°24' E 139°39'0 0.0
2014-Aug-30 01:32N 35°24' E 139°39'0 0.0
2014-Aug-30 00:32N 35°24' E 139°39'0 0.0
2014-Aug-29 23:32N 35°24' E 139°39'0 0.0
2014-Aug-29 22:32N 35°24' E 139°39'0 0.0
2014-Aug-29 21:32N 35°24' E 139°39'0 0.0
2014-Aug-29 20:32N 35°24' E 139°39'0 0.0
2014-Aug-29 19:32N 35°24' E 139°39'0 0.0
2014-Aug-29 18:32N 35°24' E 139°39'0 0.0
2014-Aug-29 17:32N 35°24' E 139°39'0 0.0
2014-Aug-29 16:32N 35°24' E 139°39'0 0.0
2014-Aug-29 15:32N 35°24' E 139°39'0 0.1
2014-Aug-29 14:32N 35°24' E 139°39'0 0.1
2014-Aug-29 13:32N 35°24' E 139°39'0 0.0
2014-Aug-29 12:32N 35°24' E 139°39'0 0.0
2014-Aug-29 11:32N 35°24' E 139°39'0 0.0
2014-Aug-29 10:32N 35°24' E 139°39'0 0.0
2014-Aug-29 09:32N 35°24' E 139°39'0 0.0
2014-Aug-29 08:32N 35°24' E 139°39'0 0.0
2014-Aug-29 07:32N 35°24' E 139°39'0 0.0
2014-Aug-29 06:32N 35°24' E 139°39'3 3.5
2014-Aug-29 05:34N 35°25' E 139°43'1110.8
2014-Aug-29 04:33N 35°30' E 139°54'4 3.8
2014-Aug-29 03:33N 35°27' E 139°58'0 0.0
2014-Aug-29 02:28N 35°27' E 139°58'0 0.0
2014-Aug-29 01:31N 35°27' E 139°58'0 0.0
2014-Aug-29 00:25N 35°27' E 139°58'0 0.0
2014-Aug-28 23:28N 35°27' E 139°58'0 0.0
2014-Aug-28 22:31N 35°27' E 139°58'1 0.8
2014-Aug-28 21:33N 35°28' E 139°58'3 3.1
2014-Aug-28 20:31N 35°29' E 139°54'0 0.0
2014-Aug-28 19:25N 35°29' E 139°54'0 0.0
2014-Aug-28 18:31N 35°29' E 139°54'0 0.0
2014-Aug-28 17:25N 35°29' E 139°54'3 3.9
2014-Aug-28 16:33N 35°27' E 139°50'1010.0
2014-Aug-28 15:34N 35°24' E 139°39'0 0.1
2014-Aug-28 14:31N 35°24' E 139°39'0 0.0
2014-Aug-28 13:31N 35°24' E 139°39'0 0.0
2014-Aug-28 12:31N 35°24' E 139°39'0 0.0
2014-Aug-28 11:31N 35°24' E 139°39'0 0.0
2014-Aug-28 10:31N 35°24' E 139°39'0 0.0
2014-Aug-28 09:31N 35°24' E 139°39'0 0.0
2014-Aug-28 08:31N 35°24' E 139°39'0 0.0
2014-Aug-28 07:31N 35°24' E 139°39'0 0.1
2014-Aug-28 06:33N 35°24' E 139°38'8 7.9
2014-Aug-28 05:34N 35°28' E 139°47'4 3.5
2014-Aug-28 04:33N 35°30' E 139°43'0 0.0
2014-Aug-28 03:32N 35°30' E 139°43'0 0.0
2014-Aug-28 02:29N 35°30' E 139°43'0 0.0
2014-Aug-28 01:32N 35°30' E 139°43'0 0.0
2014-Aug-28 00:32N 35°30' E 139°43'0 0.0
2014-Aug-27 23:32N 35°30' E 139°43'0 0.0
2014-Aug-27 22:33N 35°30' E 139°43'5 5.0
2014-Aug-27 21:33N 35°25' E 139°44'2 1.6
2014-Aug-27 20:31N 35°23' E 139°44'0 0.0
2014-Aug-27 19:31N 35°23' E 139°44'0 0.0
2014-Aug-27 18:31N 35°23' E 139°44'0 0.0
2014-Aug-27 17:31N 35°23' E 139°44'0 0.0
2014-Aug-27 16:31N 35°23' E 139°44'0 0.0
2014-Aug-27 15:28N 35°23' E 139°44'0 0.1
2014-Aug-27 14:31N 35°23' E 139°44'0 0.0
2014-Aug-27 13:32N 35°23' E 139°44'5 4.5
2014-Aug-27 12:31N 35°24' E 139°39'0 0.0
2014-Aug-27 11:31N 35°24' E 139°39'0 0.0
2014-Aug-27 10:31N 35°24' E 139°39'0 0.0
2014-Aug-27 09:31N 35°24' E 139°39'0 0.0
2014-Aug-27 08:31N 35°24' E 139°39'0 0.0
2014-Aug-27 07:28N 35°24' E 139°39'0 0.0
2014-Aug-27 06:25N 35°24' E 139°39'0 0.0
2014-Aug-27 05:31N 35°24' E 139°39'1 1.2
2014-Aug-27 04:33N 35°24' E 139°40'0 0.0
2014-Aug-27 03:31N 35°24' E 139°40'0 0.0
2014-Aug-27 02:31N 35°24' E 139°40'0 0.0
2014-Aug-27 01:31N 35°24' E 139°40'0 0.0
2014-Aug-27 00:28N 35°24' E 139°40'0 0.0
2014-Aug-26 23:31N 35°24' E 139°40'0 0.0
2014-Aug-26 22:31N 35°24' E 139°40'0 0.0
2014-Aug-26 21:31N 35°24' E 139°40'0 0.0
2014-Aug-26 20:31N 35°24' E 139°40'0 0.0
2014-Aug-26 19:31N 35°24' E 139°40'0 0.0
2014-Aug-26 18:31N 35°24' E 139°40'0 0.0
2014-Aug-26 17:28N 35°24' E 139°40'0 0.1
2014-Aug-26 16:31N 35°24' E 139°40'0 0.0
2014-Aug-26 15:31N 35°24' E 139°40'0 0.0
2014-Aug-26 14:31N 35°24' E 139°40'0 0.0
2014-Aug-26 13:31N 35°24' E 139°40'0 0.0
2014-Aug-26 12:31N 35°24' E 139°40'0 0.0
2014-Aug-26 11:31N 35°24' E 139°40'0 0.0
2014-Aug-26 10:31N 35°24' E 139°40'0 0.0
2014-Aug-26 09:31N 35°24' E 139°40'0 0.0
2014-Aug-26 08:31N 35°24' E 139°40'0 0.0
2014-Aug-26 07:31N 35°24' E 139°40'0 0.0
2014-Aug-26 06:33N 35°24' E 139°40'1 1.2
2014-Aug-26 05:33N 35°24' E 139°38'0 0.0
2014-Aug-26 04:32N 35°24' E 139°38'0 0.0
2014-Aug-26 03:32N 35°24' E 139°38'0 0.0
2014-Aug-26 02:32N 35°24' E 139°38'0 0.0
2014-Aug-26 01:32N 35°24' E 139°38'0 0.0
2014-Aug-26 00:32N 35°24' E 139°38'0 0.0
2014-Aug-25 23:32N 35°24' E 139°38'0 0.0
2014-Aug-25 22:32N 35°24' E 139°38'0 0.0
2014-Aug-25 21:32N 35°24' E 139°38'0 0.1
2014-Aug-25 20:32N 35°24' E 139°39'0 0.1
2014-Aug-25 19:32N 35°24' E 139°38'0 0.0
2014-Aug-25 18:32N 35°24' E 139°38'0 0.0
2014-Aug-25 17:29N 35°24' E 139°38'0 0.0
2014-Aug-25 16:32N 35°24' E 139°38'0 0.0
2014-Aug-25 15:29N 35°24' E 139°38'0 0.0
2014-Aug-25 14:32N 35°24' E 139°38'2 2.0
2014-Aug-25 13:33N 35°24' E 139°41'8 8.0
2014-Aug-25 12:33N 35°30' E 139°46'2 2.2
2014-Aug-25 11:32N 35°30' E 139°43'0 0.0
2014-Aug-25 10:32N 35°30' E 139°43'0 0.0
2014-Aug-25 09:32N 35°30' E 139°43'0 0.0
2014-Aug-25 08:32N 35°30' E 139°43'0 0.0
2014-Aug-25 07:32N 35°30' E 139°43'0 0.0
2014-Aug-25 06:32N 35°30' E 139°43'0 0.0
2014-Aug-25 05:32N 35°30' E 139°43'2 2.1
2014-Aug-25 04:33N 35°28' E 139°42'5 4.7
2014-Aug-25 03:32N 35°24' E 139°39'0 0.0
2014-Aug-25 02:32N 35°24' E 139°39'0 0.0
2014-Aug-25 01:32N 35°24' E 139°39'0 0.0
2014-Aug-25 00:32N 35°24' E 139°39'0 0.0
2014-Aug-24 23:32N 35°24' E 139°39'0 0.3
2014-Aug-24 22:32N 35°24' E 139°38'0 0.3
2014-Aug-24 21:32N 35°24' E 139°39'0 0.0
2014-Aug-24 20:32N 35°24' E 139°39'0 0.0
2014-Aug-24 19:32N 35°24' E 139°39'0 0.0
2014-Aug-24 18:32N 35°24' E 139°39'0 0.0
2014-Aug-24 17:32N 35°24' E 139°39'0 0.0
2014-Aug-24 16:32N 35°24' E 139°39'0 0.0
2014-Aug-24 15:33N 35°24' E 139°39'0 0.0
2014-Aug-24 14:32N 35°24' E 139°39'0 0.0
2014-Aug-24 13:32N 35°24' E 139°39'5 4.8
2014-Aug-24 12:33N 35°22' E 139°44'0 0.0
2014-Aug-24 11:33N 35°22' E 139°44'0 0.0
2014-Aug-24 10:33N 35°22' E 139°44'4 3.5
2014-Aug-24 09:33N 35°24' E 139°40'0 0.4
2014-Aug-24 08:33N 35°24' E 139°40'0 0.0
2014-Aug-24 07:33N 35°24' E 139°40'0 0.0
2014-Aug-24 06:33N 35°24' E 139°40'0 0.0
2014-Aug-24 05:33N 35°24' E 139°40'0 0.0
2014-Aug-24 04:33N 35°24' E 139°40'1 1.2
2014-Aug-24 03:32N 35°24' E 139°39'0 0.0
2014-Aug-24 02:32N 35°24' E 139°39'0 0.0
2014-Aug-24 01:32N 35°24' E 139°39'0 0.0
2014-Aug-24 00:32N 35°24' E 139°39'0 0.0
2014-Aug-23 23:32N 35°24' E 139°39'0 0.1
2014-Aug-23 22:32N 35°24' E 139°38'0 0.1
2014-Aug-23 21:32N 35°24' E 139°39'0 0.0
2014-Aug-23 20:32N 35°24' E 139°39'0 0.0
2014-Aug-23 19:32N 35°24' E 139°39'0 0.0
2014-Aug-23 03:33N 35°24' E 139°39'0 0.0
2014-Aug-23 02:32N 35°24' E 139°39'0 0.0
2014-Aug-23 01:32N 35°24' E 139°39'0 0.0
2014-Aug-23 00:32N 35°24' E 139°39'0 0.0
2014-Aug-22 23:32N 35°24' E 139°39'0 0.0
2014-Aug-22 22:29N 35°24' E 139°39'0 0.0
2014-Aug-22 21:32N 35°24' E 139°39'0 0.0
2014-Aug-22 20:32N 35°24' E 139°39'0 0.0
2014-Aug-22 19:32N 35°24' E 139°39'0 0.0
2014-Aug-22 18:32N 35°24' E 139°39'0 0.0
2014-Aug-22 17:32N 35°24' E 139°39'0 0.0
2014-Aug-22 16:32N 35°24' E 139°39'0 0.0
2014-Aug-22 15:32N 35°24' E 139°39'0 0.0
2014-Aug-22 14:32N 35°24' E 139°39'2 2.4
2014-Aug-22 13:33N 35°23' E 139°41'8 7.5
2014-Aug-22 12:34N 35°30' E 139°45'1 1.0
2014-Aug-22 11:33N 35°30' E 139°44'0 0.0
2014-Aug-22 10:33N 35°30' E 139°44'0 0.0
2014-Aug-22 09:33N 35°30' E 139°44'0 0.0
2014-Aug-22 08:33N 35°30' E 139°44'0 0.0
2014-Aug-22 07:33N 35°30' E 139°44'0 0.0
2014-Aug-22 06:33N 35°30' E 139°44'0 0.0
2014-Aug-22 05:33N 35°30' E 139°44'3 2.6
2014-Aug-22 04:33N 35°28' E 139°42'5 4.8
2014-Aug-22 03:33N 35°24' E 139°39'0 0.0
2014-Aug-22 02:33N 35°24' E 139°39'0 0.0
2014-Aug-22 01:33N 35°24' E 139°39'0 0.0
2014-Aug-22 00:33N 35°24' E 139°39'0 0.0
2014-Aug-21 23:33N 35°24' E 139°39'0 0.0
2014-Aug-21 22:33N 35°24' E 139°39'0 0.0
2014-Aug-21 21:30N 35°24' E 139°39'0 0.0
2014-Aug-21 20:33N 35°24' E 139°39'0 0.0
2014-Aug-21 19:33N 35°24' E 139°39'0 0.0
2014-Aug-21 18:33N 35°24' E 139°39'0 0.0
2014-Aug-21 17:33N 35°24' E 139°39'0 0.0
2014-Aug-21 16:33N 35°24' E 139°39'0 0.0
2014-Aug-21 15:33N 35°24' E 139°39'0 0.0
2014-Aug-21 14:33N 35°24' E 139°39'2 1.8
2014-Aug-21 13:33N 35°24' E 139°41'8 7.9
2014-Aug-21 12:33N 35°30' E 139°45'2 1.9
2014-Aug-21 11:31N 35°30' E 139°43'0 0.0
2014-Aug-21 10:31N 35°30' E 139°43'0 0.0
2014-Aug-21 09:31N 35°30' E 139°43'0 0.0
2014-Aug-21 08:31N 35°30' E 139°43'0 0.0
2014-Aug-21 07:31N 35°30' E 139°43'0 0.0
2014-Aug-21 06:31N 35°30' E 139°43'0 0.0
2014-Aug-21 05:31N 35°30' E 139°43'1 1.2
2014-Aug-21 04:33N 35°29' E 139°42'6 5.7
2014-Aug-21 03:33N 35°24' E 139°39'0 0.0
2014-Aug-21 02:33N 35°24' E 139°39'0 0.0
2014-Aug-21 01:33N 35°24' E 139°39'0 0.0
2014-Aug-21 00:33N 35°24' E 139°39'0 0.0
2014-Aug-20 23:33N 35°24' E 139°39'0 0.0
2014-Aug-20 22:33N 35°24' E 139°39'0 0.0
2014-Aug-20 21:33N 35°24' E 139°39'  
Track history (hours):
 
Tides and Currents Weather Stations Pressure Air Temp Water Temp Dewpoint Dewpoint Depression Visibility Wind Speed Wind Dir Waves Ship Positions

Jp Tsubaki

Last reported at 2014-Aug-30 21:32 UTC. Time now 2014-Aug-30 22:34 UTC.
Position N 35°24' E 139°39'.

Length 115 m; draft 4.4 m.

Type: Cargo ship. MMSI: 431000734.

Date/timePositionNaut miles runAvg speedWind from/ knotsBaromVisibWave heightAir tempDewpointWater temp
2014-Aug-30 21:32N 35°24' E 139°39'0 0.0
2014-Aug-30 20:32N 35°24' E 139°39'0 0.0
2014-Aug-30 19:32N 35°24' E 139°39'0 0.0
2014-Aug-30 18:32N 35°24' E 139°39'0 0.0
2014-Aug-30 17:32N 35°24' E 139°39'0 0.0
2014-Aug-30 16:32N 35°24' E 139°39'0 0.0
2014-Aug-30 15:32N 35°24' E 139°39'0 0.0
2014-Aug-30 14:34N 35°24' E 139°39'7 7.1
2014-Aug-30 13:34N 35°26' E 139°47'4 3.6
2014-Aug-30 12:34N 35°29' E 139°50'7 6.7
2014-Aug-30 11:33N 35°27' E 139°58'0 0.1
2014-Aug-30 10:33N 35°27' E 139°58'0 0.0
2014-Aug-30 09:28N 35°27' E 139°58'0 0.0
2014-Aug-30 08:28N 35°27' E 139°58'0 0.0
2014-Aug-30 07:31N 35°27' E 139°58'0 0.0
2014-Aug-30 06:31N 35°27' E 139°58'1 1.3
2014-Aug-30 05:34N 35°29' E 139°58'1010.2
2014-Aug-30 04:34N 35°25' E 139°46'6 5.8
2014-Aug-30 03:32N 35°24' E 139°39'0 0.0
2014-Aug-30 02:32N 35°24' E 139°39'0 0.0
2014-Aug-30 01:32N 35°24' E 139°39'0 0.0
2014-Aug-30 00:32N 35°24' E 139°39'0 0.0
2014-Aug-29 23:32N 35°24' E 139°39'0 0.0
2014-Aug-29 22:32N 35°24' E 139°39'0 0.0
2014-Aug-29 21:32N 35°24' E 139°39'0 0.0
2014-Aug-29 20:32N 35°24' E 139°39'0 0.0
2014-Aug-29 19:32N 35°24' E 139°39'0 0.0
2014-Aug-29 18:32N 35°24' E 139°39'0 0.0
2014-Aug-29 17:32N 35°24' E 139°39'0 0.0
2014-Aug-29 16:32N 35°24' E 139°39'0 0.0
2014-Aug-29 15:32N 35°24' E 139°39'0 0.1
2014-Aug-29 14:32N 35°24' E 139°39'0 0.1
2014-Aug-29 13:32N 35°24' E 139°39'0 0.0
2014-Aug-29 12:32N 35°24' E 139°39'0 0.0
2014-Aug-29 11:32N 35°24' E 139°39'0 0.0
2014-Aug-29 10:32N 35°24' E 139°39'0 0.0
2014-Aug-29 09:32N 35°24' E 139°39'0 0.0
2014-Aug-29 08:32N 35°24' E 139°39'0 0.0
2014-Aug-29 07:32N 35°24' E 139°39'0 0.0
2014-Aug-29 06:32N 35°24' E 139°39'3 3.5
2014-Aug-29 05:34N 35°25' E 139°43'1110.8
2014-Aug-29 04:33N 35°30' E 139°54'4 3.8
2014-Aug-29 03:33N 35°27' E 139°58'0 0.0
2014-Aug-29 02:28N 35°27' E 139°58'0 0.0
2014-Aug-29 01:31N 35°27' E 139°58'0 0.0
2014-Aug-29 00:25N 35°27' E 139°58'0 0.0
2014-Aug-28 23:28N 35°27' E 139°58'0 0.0
2014-Aug-28 22:31N 35°27' E 139°58'1 0.8
2014-Aug-28 21:33N 35°28' E 139°58'3 3.1
2014-Aug-28 20:31N 35°29' E 139°54'0 0.0
2014-Aug-28 19:25N 35°29' E 139°54'0 0.0
2014-Aug-28 18:31N 35°29' E 139°54'0 0.0
2014-Aug-28 17:25N 35°29' E 139°54'3 3.9
2014-Aug-28 16:33N 35°27' E 139°50'1010.0
2014-Aug-28 15:34N 35°24' E 139°39'0 0.1
2014-Aug-28 14:31N 35°24' E 139°39'0 0.0
2014-Aug-28 13:31N 35°24' E 139°39'0 0.0
2014-Aug-28 12:31N 35°24' E 139°39'0 0.0
2014-Aug-28 11:31N 35°24' E 139°39'0 0.0
2014-Aug-28 10:31N 35°24' E 139°39'0 0.0
2014-Aug-28 09:31N 35°24' E 139°39'0 0.0
2014-Aug-28 08:31N 35°24' E 139°39'0 0.0
2014-Aug-28 07:31N 35°24' E 139°39'0 0.1
2014-Aug-28 06:33N 35°24' E 139°38'8 7.9
2014-Aug-28 05:34N 35°28' E 139°47'4 3.5
2014-Aug-28 04:33N 35°30' E 139°43'0 0.0
2014-Aug-28 03:32N 35°30' E 139°43'0 0.0
2014-Aug-28 02:29N 35°30' E 139°43'0 0.0
2014-Aug-28 01:32N 35°30' E 139°43'0 0.0
2014-Aug-28 00:32N 35°30' E 139°43'0 0.0
2014-Aug-27 23:32N 35°30' E 139°43'0 0.0
2014-Aug-27 22:33N 35°30' E 139°43'5 5.0
2014-Aug-27 21:33N 35°25' E 139°44'2 1.6
2014-Aug-27 20:31N 35°23' E 139°44'0 0.0
2014-Aug-27 19:31N 35°23' E 139°44'0 0.0
2014-Aug-27 18:31N 35°23' E 139°44'0 0.0
2014-Aug-27 17:31N 35°23' E 139°44'0 0.0
2014-Aug-27 16:31N 35°23' E 139°44'0 0.0
2014-Aug-27 15:28N 35°23' E 139°44'0 0.1
2014-Aug-27 14:31N 35°23' E 139°44'0 0.0
2014-Aug-27 13:32N 35°23' E 139°44'5 4.5
2014-Aug-27 12:31N 35°24' E 139°39'0 0.0
2014-Aug-27 11:31N 35°24' E 139°39'0 0.0
2014-Aug-27 10:31N 35°24' E 139°39'0 0.0
2014-Aug-27 09:31N 35°24' E 139°39'0 0.0
2014-Aug-27 08:31N 35°24' E 139°39'0 0.0
2014-Aug-27 07:28N 35°24' E 139°39'0 0.0
2014-Aug-27 06:25N 35°24' E 139°39'0 0.0
2014-Aug-27 05:31N 35°24' E 139°39'1 1.2
2014-Aug-27 04:33N 35°24' E 139°40'0 0.0
2014-Aug-27 03:31N 35°24' E 139°40'0 0.0
2014-Aug-27 02:31N 35°24' E 139°40'0 0.0
2014-Aug-27 01:31N 35°24' E 139°40'0 0.0
2014-Aug-27 00:28N 35°24' E 139°40'0 0.0
2014-Aug-26 23:31N 35°24' E 139°40'0 0.0
2014-Aug-26 22:31N 35°24' E 139°40'0 0.0
2014-Aug-26 21:31N 35°24' E 139°40'0 0.0
2014-Aug-26 20:31N 35°24' E 139°40'0 0.0
2014-Aug-26 19:31N 35°24' E 139°40'0 0.0
2014-Aug-26 18:31N 35°24' E 139°40'0 0.0
2014-Aug-26 17:28N 35°24' E 139°40'0 0.1
2014-Aug-26 16:31N 35°24' E 139°40'0 0.0
2014-Aug-26 15:31N 35°24' E 139°40'0 0.0
2014-Aug-26 14:31N 35°24' E 139°40'0 0.0
2014-Aug-26 13:31N 35°24' E 139°40'0 0.0
2014-Aug-26 12:31N 35°24' E 139°40'0 0.0
2014-Aug-26 11:31N 35°24' E 139°40'0 0.0
2014-Aug-26 10:31N 35°24' E 139°40'0 0.0
2014-Aug-26 09:31N 35°24' E 139°40'0 0.0
2014-Aug-26 08:31N 35°24' E 139°40'0 0.0
2014-Aug-26 07:31N 35°24' E 139°40'0 0.0
2014-Aug-26 06:33N 35°24' E 139°40'1 1.2
2014-Aug-26 05:33N 35°24' E 139°38'0 0.0
2014-Aug-26 04:32N 35°24' E 139°38'0 0.0
2014-Aug-26 03:32N 35°24' E 139°38'0 0.0
2014-Aug-26 02:32N 35°24' E 139°38'0 0.0
2014-Aug-26 01:32N 35°24' E 139°38'0 0.0
2014-Aug-26 00:32N 35°24' E 139°38'0 0.0
2014-Aug-25 23:32N 35°24' E 139°38'0 0.0
2014-Aug-25 22:32N 35°24' E 139°38'0 0.0
2014-Aug-25 21:32N 35°24' E 139°38'0 0.1
2014-Aug-25 20:32N 35°24' E 139°39'0 0.1
2014-Aug-25 19:32N 35°24' E 139°38'0 0.0
2014-Aug-25 18:32N 35°24' E 139°38'0 0.0
2014-Aug-25 17:29N 35°24' E 139°38'0 0.0
2014-Aug-25 16:32N 35°24' E 139°38'0 0.0
2014-Aug-25 15:29N 35°24' E 139°38'0 0.0
2014-Aug-25 14:32N 35°24' E 139°38'2 2.0
2014-Aug-25 13:33N 35°24' E 139°41'8 8.0
2014-Aug-25 12:33N 35°30' E 139°46'2 2.2
2014-Aug-25 11:32N 35°30' E 139°43'0 0.0
2014-Aug-25 10:32N 35°30' E 139°43'0 0.0
2014-Aug-25 09:32N 35°30' E 139°43'0 0.0
2014-Aug-25 08:32N 35°30' E 139°43'0 0.0
2014-Aug-25 07:32N 35°30' E 139°43'0 0.0
2014-Aug-25 06:32N 35°30' E 139°43'0 0.0
2014-Aug-25 05:32N 35°30' E 139°43'2 2.1
2014-Aug-25 04:33N 35°28' E 139°42'5 4.7
2014-Aug-25 03:32N 35°24' E 139°39'0 0.0
2014-Aug-25 02:32N 35°24' E 139°39'0 0.0
2014-Aug-25 01:32N 35°24' E 139°39'0 0.0
2014-Aug-25 00:32N 35°24' E 139°39'0 0.0
2014-Aug-24 23:32N 35°24' E 139°39'0 0.3
2014-Aug-24 22:32N 35°24' E 139°38'0 0.3
2014-Aug-24 21:32N 35°24' E 139°39'0 0.0
2014-Aug-24 20:32N 35°24' E 139°39'0 0.0
2014-Aug-24 19:32N 35°24' E 139°39'0 0.0
2014-Aug-24 18:32N 35°24' E 139°39'0 0.0
2014-Aug-24 17:32N 35°24' E 139°39'0 0.0
2014-Aug-24 16:32N 35°24' E 139°39'0 0.0
2014-Aug-24 15:33N 35°24' E 139°39'0 0.0
2014-Aug-24 14:32N 35°24' E 139°39'0 0.0
2014-Aug-24 13:32N 35°24' E 139°39'5 4.8
2014-Aug-24 12:33N 35°22' E 139°44'0 0.0
2014-Aug-24 11:33N 35°22' E 139°44'0 0.0
2014-Aug-24 10:33N 35°22' E 139°44'4 3.5
2014-Aug-24 09:33N 35°24' E 139°40'0 0.4
2014-Aug-24 08:33N 35°24' E 139°40'0 0.0
2014-Aug-24 07:33N 35°24' E 139°40'0 0.0
2014-Aug-24 06:33N 35°24' E 139°40'0 0.0
2014-Aug-24 05:33N 35°24' E 139°40'0 0.0
2014-Aug-24 04:33N 35°24' E 139°40'1 1.2
2014-Aug-24 03:32N 35°24' E 139°39'0 0.0
2014-Aug-24 02:32N 35°24' E 139°39'0 0.0
2014-Aug-24 01:32N 35°24' E 139°39'0 0.0
2014-Aug-24 00:32N 35°24' E 139°39'0 0.0
2014-Aug-23 23:32N 35°24' E 139°39'0 0.1
2014-Aug-23 22:32N 35°24' E 139°38'0 0.1
2014-Aug-23 21:32N 35°24' E 139°39'0 0.0
2014-Aug-23 20:32N 35°24' E 139°39'0 0.0
2014-Aug-23 19:32N 35°24' E 139°39'0 0.0
2014-Aug-23 03:33N 35°24' E 139°39'0 0.0
2014-Aug-23 02:32N 35°24' E 139°39'0 0.0
2014-Aug-23 01:32N 35°24' E 139°39'0 0.0
2014-Aug-23 00:32N 35°24' E 139°39'0 0.0
2014-Aug-22 23:32N 35°24' E 139°39'0 0.0
2014-Aug-22 22:29N 35°24' E 139°39'0 0.0
2014-Aug-22 21:32N 35°24' E 139°39'0 0.0
2014-Aug-22 20:32N 35°24' E 139°39'0 0.0
2014-Aug-22 19:32N 35°24' E 139°39'0 0.0
2014-Aug-22 18:32N 35°24' E 139°39'0 0.0
2014-Aug-22 17:32N 35°24' E 139°39'0 0.0
2014-Aug-22 16:32N 35°24' E 139°39'0 0.0
2014-Aug-22 15:32N 35°24' E 139°39'0 0.0
2014-Aug-22 14:32N 35°24' E 139°39'2 2.4
2014-Aug-22 13:33N 35°23' E 139°41'8 7.5
2014-Aug-22 12:34N 35°30' E 139°45'1 1.0
2014-Aug-22 11:33N 35°30' E 139°44'0 0.0
2014-Aug-22 10:33N 35°30' E 139°44'0 0.0
2014-Aug-22 09:33N 35°30' E 139°44'0 0.0
2014-Aug-22 08:33N 35°30' E 139°44'0 0.0
2014-Aug-22 07:33N 35°30' E 139°44'0 0.0
2014-Aug-22 06:33N 35°30' E 139°44'0 0.0
2014-Aug-22 05:33N 35°30' E 139°44'3 2.6
2014-Aug-22 04:33N 35°28' E 139°42'5 4.8
2014-Aug-22 03:33N 35°24' E 139°39'0 0.0
2014-Aug-22 02:33N 35°24' E 139°39'0 0.0
2014-Aug-22 01:33N 35°24' E 139°39'0 0.0
2014-Aug-22 00:33N 35°24' E 139°39'0 0.0
2014-Aug-21 23:33N 35°24' E 139°39'0 0.0
2014-Aug-21 22:33N 35°24' E 139°39'0 0.0
2014-Aug-21 21:30N 35°24' E 139°39'0 0.0
2014-Aug-21 20:33N 35°24' E 139°39'0 0.0
2014-Aug-21 19:33N 35°24' E 139°39'0 0.0
2014-Aug-21 18:33N 35°24' E 139°39'0 0.0
2014-Aug-21 17:33N 35°24' E 139°39'0 0.0
2014-Aug-21 16:33N 35°24' E 139°39'0 0.0
2014-Aug-21 15:33N 35°24' E 139°39'0 0.0
2014-Aug-21 14:33N 35°24' E 139°39'2 1.8
2014-Aug-21 13:33N 35°24' E 139°41'8 7.9
2014-Aug-21 12:33N 35°30' E 139°45'2 1.9
2014-Aug-21 11:31N 35°30' E 139°43'0 0.0
2014-Aug-21 10:31N 35°30' E 139°43'0 0.0
2014-Aug-21 09:31N 35°30' E 139°43'0 0.0
2014-Aug-21 08:31N 35°30' E 139°43'0 0.0
2014-Aug-21 07:31N 35°30' E 139°43'0 0.0
2014-Aug-21 06:31N 35°30' E 139°43'0 0.0
2014-Aug-21 05:31N 35°30' E 139°43'1 1.2
2014-Aug-21 04:33N 35°29' E 139°42'6 5.7
2014-Aug-21 03:33N 35°24' E 139°39'0 0.0
2014-Aug-21 02:33N 35°24' E 139°39'0 0.0
2014-Aug-21 01:33N 35°24' E 139°39'0 0.0
2014-Aug-21 00:33N 35°24' E 139°39'0 0.0
2014-Aug-20 23:33N 35°24' E 139°39'0 0.0
2014-Aug-20 22:33N 35°24' E 139°39'0 0.0
2014-Aug-20 21:33N 35°24' E 139°39'  

Dump ship's entire track history